Terminal Aerodrome Forecast
Issued by NWS Medford, OR

Home | Current Version | Previous Version | Text Only | Print | Product List | Glossary On
Versions: 1 2 3 4 5 6 7 8 9 10 11 12 13 14
000
FTUS46 KMFR 232300 RRA
TAFMFR
TAF
KMFR 232342Z 2400/2424 30007KT P6SM -SHRA OVC050
     FM240200 19004KT P6SM -RA OVC040
     FM240600 VRB03KT P6SM VCSH OVC040
     FM241400 23007KT P6SM VCSH OVC040
     FM241800 28008KT P6SM -SHRA OVC050=

USA.gov is the U.S. government's official web portal to all federal, state and local government web resources and services.